Time;durP1;ratioP1;P1;durP2;ratioP2;P2;SDS_P1;SDS_P2;PMS_P1;PMS_P2;Temp;Humidity;BMP_temperature;BMP_pressure;BME280_temperature;BME280_humidity;BME280_pressure;Samples;Min_cycle;Max_cycle;Signal;HPM_P1;HPM_P2
2024/01/24 05:02:06;;;;;;;1.07;0.97;;;10.30;97.30;;;;;;5349531;23;20498;-93
2024/01/24 05:04:39;;;;;;;0.90;0.80;;;10.40;97.30;;;;;;5034549;28;20435;-92
2024/01/24 05:07:38;;;;;;;0.90;0.80;;;10.40;97.30;;;;;;5034150;28;20232;-93
2024/01/24 05:10:07;;;;;;;1.00;0.90;;;10.40;97.30;;;;;;5039803;28;20441;-94
2024/01/24 05:12:47;;;;;;;2.60;1.20;;;10.50;97.30;;;;;;5052466;28;20442;-94
2024/01/24 05:15:15;;;;;;;1.00;0.90;;;10.60;97.30;;;;;;5046145;28;20419;-94
2024/01/24 05:17:48;;;;;;;0.90;0.80;;;10.60;97.30;;;;;;5035406;28;20426;-93
2024/01/24 05:20:17;;;;;;;0.90;0.80;;;10.60;97.30;;;;;;5034790;28;20423;-93
2024/01/24 05:22:47;;;;;;;1.20;1.10;;;10.60;97.30;;;;;;5016018;28;20888;-94
2024/01/24 05:25:13;;;;;;;2.73;1.23;;;10.60;97.30;;;;;;5042568;28;20454;-95
2024/01/24 05:27:38;;;;;;;1.43;1.33;;;10.70;97.30;;;;;;5042202;28;20975;-93
2024/01/24 05:30:07;;;;;;;0.80;0.70;;;10.70;97.30;;;;;;5045798;28;20194;-93
2024/01/24 05:32:35;;;;;;;1.00;0.90;;;10.60;97.30;;;;;;5036830;28;20272;-95
2024/01/24 05:35:06;;;;;;;0.80;0.70;;;10.60;97.30;;;;;;5045687;28;20415;-95
2024/01/24 05:37:39;;;;;;;0.90;0.80;;;10.60;97.30;;;;;;5053854;28;20539;-96
2024/01/24 05:40:08;;;;;;;1.20;1.10;;;10.60;97.30;;;;;;5037855;28;20803;-92
2024/01/24 05:42:37;;;;;;;0.80;0.70;;;10.60;97.30;;;;;;5037235;28;20435;-92
2024/01/24 05:45:06;;;;;;;4.10;1.73;;;10.60;97.30;;;;;;5033690;28;20415;-94
2024/01/24 05:47:39;;;;;;;0.80;0.70;;;10.60;97.30;;;;;;5041202;28;20451;-93
2024/01/24 05:50:15;;;;;;;0.97;0.87;;;10.60;97.30;;;;;;5046645;28;20469;-95
2024/01/24 05:52:46;;;;;;;1.00;0.90;;;10.60;97.30;;;;;;5055850;28;20437;-93
2024/01/24 05:55:20;;;;;;;0.80;0.70;;;10.70;97.30;;;;;;5042224;28;20430;-91
2024/01/24 05:57:46;;;;;;;0.90;0.80;;;10.70;97.30;;;;;;5047779;28;20433;-93
2024/01/24 06:00:19;;;;;;;0.90;0.80;;;10.70;97.30;;;;;;5049038;28;20422;-92
2024/01/24 06:02:47;;;;;;;1.53;1.43;;;10.70;97.30;;;;;;5055729;28;20261;-93
2024/01/24 06:05:15;;;;;;;10.43;1.00;;;10.70;97.30;;;;;;5051231;28;20476;-92
2024/01/24 06:07:49;;;;;;;0.97;0.87;;;10.70;97.30;;;;;;5044229;28;21109;-93
2024/01/24 06:10:18;;;;;;;1.00;0.90;;;10.70;97.30;;;;;;5049220;28;20432;-93
2024/01/24 06:12:46;;;;;;;0.90;0.80;;;10.60;97.30;;;;;;5054234;28;20422;-93
2024/01/24 06:15:26;;;;;;;6.17;1.90;;;10.70;97.30;;;;;;5043140;28;20446;-94
2024/01/24 06:17:58;;;;;;;1.10;1.00;;;10.70;97.30;;;;;;5053593;28;20991;-94
2024/01/24 06:20:27;;;;;;;1.37;1.27;;;10.70;97.30;;;;;;5051340;28;20920;-94
2024/01/24 06:23:14;;;;;;;0.90;0.80;;;10.80;97.30;;;;;;5039227;28;20430;-94
2024/01/24 06:25:45;;;;;;;0.80;0.70;;;10.90;97.30;;;;;;5057318;28;20457;-94
2024/01/24 06:28:16;;;;;;;0.90;0.80;;;11.10;97.30;;;;;;5053078;28;20550;-94
2024/01/24 06:30:47;;;;;;;1.00;0.90;;;11.20;97.30;;;;;;5047601;28;20479;-94
2024/01/24 06:33:27;;;;;;;0.83;0.73;;;11.40;97.30;;;;;;5058023;28;20425;-94
2024/01/24 06:35:55;;;;;;;0.80;0.70;;;11.50;97.30;;;;;;5048154;28;20418;-94
2024/01/24 06:38:27;;;;;;;0.90;0.80;;;11.60;97.30;;;;;;5052246;28;20438;-93
2024/01/24 06:40:56;;;;;;;0.80;0.70;;;11.80;97.30;;;;;;5050101;28;20515;-93
2024/01/24 06:43:26;;;;;;;2.00;1.13;;;11.80;97.30;;;;;;5058777;28;20422;-93
2024/01/24 06:46:05;;;;;;;0.80;0.70;;;11.80;97.30;;;;;;5049735;28;20792;-94
2024/01/24 06:48:36;;;;;;;1.00;0.90;;;11.90;97.30;;;;;;5057492;28;20497;-94
2024/01/24 06:51:13;;;;;;;1.80;1.00;;;12.00;97.30;;;;;;5057851;28;20426;-94
2024/01/24 06:53:38;;;;;;;0.87;0.77;;;12.00;97.30;;;;;;5049752;28;20497;-94
2024/01/24 06:56:08;;;;;;;1.10;1.00;;;12.10;97.30;;;;;;5039512;28;21018;-91
2024/01/24 06:58:41;;;;;;;1.00;1.00;;;12.10;97.30;;;;;;5046681;28;20182;-93
2024/01/24 07:01:06;;;;;;;0.83;0.73;;;12.20;97.30;;;;;;5032470;28;20462;-92
2024/01/24 07:03:55;;;;;;;1.00;0.90;;;12.30;97.30;;;;;;5038442;28;20514;-93
2024/01/24 07:06:28;;;;;;;0.90;0.80;;;12.30;97.30;;;;;;5045423;28;20270;-93
2024/01/24 07:08:56;;;;;;;0.90;0.80;;;12.30;97.30;;;;;;5038946;28;20510;-94
2024/01/24 07:11:37;;;;;;;1.23;1.20;;;12.40;97.30;;;;;;5036161;28;20452;-90
2024/01/24 07:14:05;;;;;;;0.90;0.80;;;12.40;97.30;;;;;;5047644;28;20822;-91
2024/01/24 07:16:38;;;;;;;0.90;0.80;;;12.30;97.30;;;;;;5053509;28;20430;-92
2024/01/24 07:19:04;;;;;;;0.90;0.80;;;12.30;97.30;;;;;;5047914;28;20941;-93
2024/01/24 07:21:38;;;;;;;0.90;0.80;;;12.30;97.30;;;;;;5049614;28;20450;-92
2024/01/24 07:24:08;;;;;;;0.90;0.80;;;12.30;97.30;;;;;;5051371;28;20184;-94
2024/01/24 07:26:36;;;;;;;0.90;0.80;;;12.30;97.30;;;;;;5051066;28;20556;-91
2024/01/24 07:29:10;;;;;;;0.80;0.70;;;12.30;97.30;;;;;;5050138;28;20836;-92
2024/01/24 07:31:36;;;;;;;1.03;0.93;;;12.30;97.30;;;;;;5051117;28;20469;-93
2024/01/24 07:34:07;;;;;;;0.87;0.77;;;12.40;97.30;;;;;;5053720;28;21085;-93
2024/01/24 07:36:45;;;;;;;0.87;0.77;;;12.40;97.30;;;;;;5043100;28;20188;-91
2024/01/24 07:39:18;;;;;;;0.90;0.80;;;12.40;97.30;;;;;;5036285;28;20430;-91
2024/01/24 07:41:55;;;;;;;0.90;0.80;;;12.30;97.30;;;;;;5048964;28;20470;-92
2024/01/24 07:44:28;;;;;;;0.90;0.80;;;12.30;97.30;;;;;;5033037;28;20426;-91
2024/01/24 07:46:57;;;;;;;0.90;0.80;;;12.30;97.30;;;;;;5044229;28;20478;-91
2024/01/24 07:49:29;;;;;;;1.00;0.90;;;12.30;97.30;;;;;;5036328;28;20510;-93
2024/01/24 07:51:57;;;;;;;1.13;1.03;;;12.40;97.30;;;;;;5035470;28;20454;-91
2024/01/24 07:54:26;;;;;;;0.80;0.70;;;12.40;97.30;;;;;;5040485;28;20419;-91
2024/01/24 07:56:59;;;;;;;0.80;0.70;;;12.40;97.30;;;;;;5035496;28;20428;-90
2024/01/24 07:59:27;;;;;;;0.87;0.77;;;12.40;97.30;;;;;;5039508;28;20419;-91
2024/01/24 08:01:56;;;;;;;0.90;0.80;;;12.40;97.30;;;;;;5048474;28;20474;-93
2024/01/24 08:04:31;;;;;;;0.80;0.70;;;12.50;97.30;;;;;;5044300;28;20484;-91
2024/01/24 08:06:57;;;;;;;0.90;0.80;;;12.50;97.30;;;;;;5038132;28;20499;-92
2024/01/24 08:09:25;;;;;;;0.80;0.70;;;12.50;97.30;;;;;;5050959;28;20418;-91
2024/01/24 08:11:58;;;;;;;0.90;0.80;;;12.50;97.30;;;;;;5047654;28;20221;-92
2024/01/24 08:14:24;;;;;;;0.90;0.80;;;12.50;97.30;;;;;;5041577;28;20865;-92
2024/01/24 08:17:11;;;;;;;0.93;0.83;;;12.50;97.30;;;;;;5045893;28;20475;-93
2024/01/24 08:19:38;;;;;;;0.80;0.70;;;12.50;97.30;;;;;;5051659;28;20638;-92
2024/01/24 08:22:06;;;;;;;0.90;0.80;;;12.40;97.30;;;;;;5039422;28;20957;-92
2024/01/24 08:24:36;;;;;;;0.80;0.70;;;12.40;97.30;;;;;;5043455;28;20461;-92
2024/01/24 08:27:16;;;;;;;0.90;0.80;;;12.30;97.30;;;;;;5045571;28;20458;-93
2024/01/24 08:29:44;;;;;;;0.80;0.80;;;12.20;97.30;;;;;;5045235;28;20419;-93
2024/01/24 08:32:18;;;;;;;0.70;0.70;;;12.20;97.30;;;;;;5044891;28;20451;-92
2024/01/24 08:34:47;;;;;;;1.10;1.00;;;12.20;97.30;;;;;;5047096;28;20420;-92
2024/01/24 08:37:18;;;;;;;0.93;0.83;;;12.10;97.30;;;;;;5042409;28;20935;-93
2024/01/24 08:39:46;;;;;;;0.93;0.83;;;12.30;97.30;;;;;;5054729;28;20465;-92
2024/01/24 08:42:19;;;;;;;0.80;0.70;;;12.40;97.30;;;;;;5026919;28;20980;-92
2024/01/24 08:44:48;;;;;;;0.90;0.80;;;12.50;97.30;;;;;;5038451;28;20423;-91
2024/01/24 08:47:13;;;;;;;0.83;0.73;;;12.60;97.30;;;;;;5039540;28;20558;-92
2024/01/24 08:49:39;;;;;;;1.37;1.20;;;12.60;97.30;;;;;;5035039;28;20458;-91
2024/01/24 08:52:07;;;;;;;0.90;0.80;;;12.70;97.30;;;;;;5043315;28;20196;-92
2024/01/24 08:54:35;;;;;;;0.90;0.80;;;12.70;97.30;;;;;;5046625;28;20217;-93
2024/01/24 08:57:10;;;;;;;4.60;0.90;;;12.80;97.30;;;;;;5034246;28;20942;-92
2024/01/24 08:59:38;;;;;;;1.03;0.93;;;12.90;97.30;;;;;;5037896;28;20438;-92
2024/01/24 09:02:07;;;;;;;1.00;0.90;;;13.00;97.30;;;;;;5043685;28;20485;-92
2024/01/24 09:04:36;;;;;;;0.90;0.80;;;13.10;97.30;;;;;;5031446;28;20434;-92
2024/01/24 09:07:05;;;;;;;0.80;0.70;;;13.00;97.30;;;;;;5035406;28;20463;-92
2024/01/24 09:09:35;;;;;;;0.90;0.80;;;12.90;97.30;;;;;;5041790;28;20450;-93
2024/01/24 09:12:04;;;;;;;0.80;0.70;;;12.80;97.30;;;;;;5037207;28;20847;-91
2024/01/24 09:14:38;;;;;;;0.80;0.70;;;12.70;97.30;;;;;;5042821;28;20423;-91
2024/01/24 09:17:09;;;;;;;0.93;0.83;;;12.70;97.30;;;;;;5036140;28;20499;-91
2024/01/24 09:19:38;;;;;;;0.70;0.70;;;12.70;97.30;;;;;;5034979;28;20425;-93
2024/01/24 09:22:06;;;;;;;0.90;0.80;;;12.70;97.30;;;;;;5039631;28;20491;-92
2024/01/24 09:24:32;;;;;;;2.30;0.87;;;12.70;97.30;;;;;;5044595;28;20430;-91
2024/01/24 09:26:58;;;;;;;0.90;0.80;;;12.70;97.30;;;;;;5030634;28;20455;-92
2024/01/24 09:29:23;;;;;;;0.80;0.70;;;12.60;97.30;;;;;;5035988;28;20191;-93
2024/01/24 09:31:54;;;;;;;0.80;0.70;;;12.30;97.30;;;;;;5033284;28;20207;-91
2024/01/24 09:34:26;;;;;;;1.53;1.10;;;12.00;97.30;;;;;;5032770;28;20245;-92
2024/01/24 09:37:06;;;;;;;0.90;0.80;;;11.70;97.30;;;;;;5038596;28;20434;-90
2024/01/24 09:39:36;;;;;;;0.90;0.80;;;11.60;97.30;;;;;;5049978;28;20774;-91
2024/01/24 09:42:05;;;;;;;1.20;1.10;;;11.40;97.30;;;;;;5052164;28;20502;-90
2024/01/24 09:44:36;;;;;;;1.00;0.90;;;11.20;97.30;;;;;;5044794;28;20456;-90
2024/01/24 09:47:14;;;;;;;3.70;1.63;;;11.20;97.30;;;;;;5036210;28;20482;-90
2024/01/24 09:49:49;;;;;;;0.90;0.80;;;11.20;97.30;;;;;;5052283;28;20422;-95
2024/01/24 09:52:17;;;;;;;4.10;1.57;;;11.20;97.30;;;;;;5040766;28;20438;-91
2024/01/24 09:54:47;;;;;;;4.73;1.17;;;11.20;97.30;;;;;;5040852;28;20438;-90
2024/01/24 09:57:16;;;;;;;2.77;2.60;;;11.30;97.30;;;;;;5035795;28;20430;-92
2024/01/24 09:59:43;;;;;;;1.30;1.20;;;11.40;97.30;;;;;;5037223;28;20496;-90
2024/01/24 10:02:31;;;;;;;0.90;0.80;;;11.40;97.30;;;;;;5049067;28;20553;-93
2024/01/24 10:04:59;;;;;;;0.90;0.80;;;11.40;97.30;;;;;;5049801;28;20513;-90
2024/01/24 10:07:26;;;;;;;2.93;1.07;;;11.40;97.30;;;;;;5047175;28;20463;-90
2024/01/24 10:10:07;;;;;;;1.00;0.90;;;11.40;97.30;;;;;;5040249;28;20434;-90
2024/01/24 10:12:32;;;;;;;0.87;0.77;;;11.40;97.30;;;;;;5026712;28;20797;-91
2024/01/24 10:14:58;;;;;;;4.73;1.73;;;11.40;97.30;;;;;;5032965;28;20418;-91
2024/01/24 10:17:28;;;;;;;1.00;0.90;;;11.40;97.30;;;;;;5042796;28;20714;-91
2024/01/24 10:19:57;;;;;;;4.73;1.60;;;11.60;97.30;;;;;;5041542;28;20187;-92
2024/01/24 10:22:25;;;;;;;1.03;0.93;;;11.80;97.30;;;;;;5038355;28;20438;-92
2024/01/24 10:24:56;;;;;;;2.70;2.50;;;11.80;97.30;;;;;;5056129;28;20417;-91
2024/01/24 10:27:29;;;;;;;2.07;1.63;;;11.70;97.30;;;;;;5046647;28;20473;-93
2024/01/24 10:29:58;;;;;;;1.00;0.90;;;11.80;97.30;;;;;;5055004;28;20459;-90
2024/01/24 10:32:29;;;;;;;0.90;0.80;;;11.80;97.30;;;;;;5045895;28;20525;-93
2024/01/24 10:34:56;;;;;;;0.80;0.70;;;11.80;97.30;;;;;;5055539;28;20457;-91
2024/01/24 10:37:47;;;;;;;3.40;1.30;;;11.90;97.30;;;;;;5052524;28;20804;-92
2024/01/24 10:40:20;;;;;;;0.90;0.80;;;11.90;97.30;;;;;;5031145;28;20434;-91
2024/01/24 10:42:59;;;;;;;7.10;1.80;;;11.90;97.30;;;;;;5044332;28;20423;-92
2024/01/24 10:45:29;;;;;;;0.90;0.80;;;12.00;97.30;;;;;;5034088;28;20575;-90
2024/01/24 10:47:58;;;;;;;0.90;0.80;;;12.00;97.30;;;;;;5056343;28;20678;-90
2024/01/24 10:50:28;;;;;;;1.27;0.93;;;12.10;97.30;;;;;;5046743;28;20423;-91
2024/01/24 10:52:58;;;;;;;1.70;1.60;;;12.10;97.30;;;;;;5043538;28;20422;-93
2024/01/24 10:55:26;;;;;;;0.90;0.80;;;12.10;97.30;;;;;;5054689;28;20433;-93
2024/01/24 10:57:57;;;;;;;3.10;2.13;;;12.10;97.30;;;;;;5048279;28;20429;-91
2024/01/24 11:00:28;;;;;;;1.00;0.90;;;12.00;97.30;;;;;;5034954;28;20435;-88
2024/01/24 11:03:08;;;;;;;1.10;1.00;;;11.90;97.30;;;;;;5035742;28;20504;-92
2024/01/24 11:05:46;;;;;;;9.17;1.73;;;11.90;97.30;;;;;;5036374;28;20423;-93
2024/01/24 11:08:48;;;;;;;10.03;1.30;;;11.80;97.30;;;;;;5037155;28;20477;-91
2024/01/24 11:11:38;;;;;;;1.17;1.07;;;11.90;97.30;;;;;;5046265;28;20465;-92
2024/01/24 11:14:15;;;;;;;4.00;2.53;;;11.90;97.30;;;;;;5046340;28;20422;-90
2024/01/24 11:16:47;;;;;;;2.20;1.97;;;11.80;97.30;;;;;;5047026;28;20437;-93
2024/01/24 11:21:40;;;;;;;1.70;1.60;;;11.80;97.30;;;;;;4992643;28;20512;-68
2024/01/24 11:24:07;;;;;;;1.13;1.00;;;12.00;97.10;;;;;;4995878;28;20436;-72
2024/01/24 11:26:33;;;;;;;0.90;0.80;;;12.10;97.10;;;;;;4989726;28;20276;-68
2024/01/24 11:29:05;;;;;;;2.50;2.13;;;12.20;97.00;;;;;;4994267;28;20529;-80
2024/01/24 11:31:39;;;;;;;1.10;1.10;;;12.30;96.90;;;;;;4989298;28;20208;-72
2024/01/24 11:34:08;;;;;;;6.03;0.93;;;12.30;96.10;;;;;;4991543;28;20412;-72
2024/01/24 11:36:50;;;;;;;2.07;1.10;;;12.40;96.20;;;;;;5000924;28;20735;-81
2024/01/24 11:39:38;;;;;;;0.90;0.80;;;12.40;95.60;;;;;;4993042;28;20539;-71
2024/01/24 11:42:25;;;;;;;1.27;1.17;;;12.60;96.00;;;;;;4994137;28;20875;-70
2024/01/24 11:45:11;;;;;;;1.33;1.23;;;12.70;95.40;;;;;;4989122;28;20788;-69
2024/01/24 11:47:38;;;;;;;1.03;0.93;;;12.80;95.40;;;;;;4993287;28;20490;-69
2024/01/24 11:50:04;;;;;;;1.90;1.47;;;13.00;95.20;;;;;;4988318;28;20445;-72
2024/01/24 11:52:30;;;;;;;0.90;0.80;;;13.10;94.70;;;;;;4993288;28;20514;-77
2024/01/24 11:54:55;;;;;;;1.83;1.40;;;13.20;94.30;;;;;;4990741;28;20901;-74
2024/01/24 11:57:21;;;;;;;1.30;1.20;;;13.30;93.80;;;;;;4998369;28;20201;-77
2024/01/24 11:59:46;;;;;;;2.40;2.20;;;13.00;94.00;;;;;;4993059;28;20220;-77
2024/01/24 12:02:12;;;;;;;1.13;1.03;;;12.80;94.30;;;;;;4991325;28;20237;-76
2024/01/24 12:04:37;;;;;;;1.00;0.90;;;12.60;94.40;;;;;;4995357;28;20188;-74
2024/01/24 12:07:03;;;;;;;1.10;1.00;;;12.50;94.20;;;;;;4989353;28;20218;-73
2024/01/24 12:09:29;;;;;;;12.03;2.03;;;12.40;94.60;;;;;;4995363;28;20192;-71
2024/01/24 12:11:54;;;;;;;3.23;2.17;;;12.70;94.20;;;;;;4989301;28;20210;-80
2024/01/24 12:14:20;;;;;;;1.30;1.00;;;12.90;93.10;;;;;;4995349;28;20201;-73
2024/01/24 12:16:47;;;;;;;2.40;1.73;;;12.90;92.80;;;;;;4991887;28;20186;-74
2024/01/24 12:19:15;;;;;;;0.70;0.70;;;12.70;92.30;;;;;;4993363;28;20421;-72
2024/01/24 12:21:40;;;;;;;2.50;2.27;;;12.60;92.50;;;;;;4951900;28;20497;-77
2024/01/24 12:24:07;;;;;;;2.10;1.60;;;12.70;93.00;;;;;;4952379;28;20462;-74
2024/01/24 12:26:32;;;;;;;2.73;1.20;;;12.90;92.90;;;;;;4950169;28;20718;-75
2024/01/24 12:28:59;;;;;;;7.20;3.33;;;13.20;92.60;;;;;;4970724;28;20514;-79
2024/01/24 12:31:28;;;;;;;1.20;1.00;;;13.20;92.00;;;;;;4956325;28;20203;-76
2024/01/24 12:33:55;;;;;;;18.37;2.03;;;12.90;92.30;;;;;;4953886;28;20411;-75
2024/01/24 12:36:22;;;;;;;1.90;1.37;;;12.80;92.90;;;;;;4968762;28;20861;-80
2024/01/24 12:38:50;;;;;;;1.90;1.00;;;12.60;93.00;;;;;;4969265;28;20921;-74
2024/01/24 12:41:16;;;;;;;20.60;1.97;;;12.40;93.30;;;;;;4955816;28;20872;-72
2024/01/24 12:43:42;;;;;;;2.60;1.97;;;12.30;93.40;;;;;;4968100;28;20514;-77
2024/01/24 12:46:08;;;;;;;2.50;2.30;;;12.30;93.70;;;;;;4953574;28;20509;-71
2024/01/24 12:48:34;;;;;;;1.87;1.00;;;12.10;94.20;;;;;;4971489;28;20214;-68
2024/01/24 12:51:00;;;;;;;2.40;1.10;;;12.00;93.40;;;;;;4952019;28;20258;-73
2024/01/24 12:53:26;;;;;;;3.40;1.73;;;12.00;92.00;;;;;;4970061;28;20430;-81
2024/01/24 12:55:52;;;;;;;1.53;1.43;;;12.00;92.40;;;;;;4968451;28;20520;-80
2024/01/24 12:58:17;;;;;;;8.80;1.03;;;12.10;92.10;;;;;;4952892;28;20496;-77
2024/01/24 13:00:43;;;;;;;3.10;1.40;;;12.20;91.80;;;;;;4950667;28;20218;-81
2024/01/24 13:03:08;;;;;;;1.17;1.07;;;12.00;91.30;;;;;;4951024;28;20195;-73
2024/01/24 13:05:34;;;;;;;0.90;0.80;;;11.80;91.70;;;;;;4956105;28;20284;-70
2024/01/24 13:07:59;;;;;;;1.93;1.50;;;11.70;92.10;;;;;;4954475;28;20215;-71
2024/01/24 13:10:27;;;;;;;1.30;1.20;;;11.60;92.70;;;;;;4951111;28;20528;-74
2024/01/24 13:12:52;;;;;;;1.03;0.93;;;11.50;92.80;;;;;;4953005;28;20419;-71
2024/01/24 13:15:18;;;;;;;0.90;0.80;;;11.40;93.40;;;;;;4952866;28;20450;-75
2024/01/24 13:17:44;;;;;;;1.50;1.40;;;11.40;93.80;;;;;;4972260;28;20186;-72
2024/01/24 13:20:10;;;;;;;9.93;2.07;;;11.60;93.80;;;;;;4964975;28;20233;-76
2024/01/24 13:22:36;;;;;;;1.27;1.10;;;11.50;93.50;;;;;;4990464;28;20192;-73
2024/01/24 13:25:01;;;;;;;2.57;2.10;;;11.40;93.80;;;;;;4989319;28;20428;-70
2024/01/24 13:27:27;;;;;;;1.10;1.00;;;11.40;94.00;;;;;;4988476;28;20534;-68
2024/01/24 13:29:52;;;;;;;1.00;0.90;;;11.30;94.10;;;;;;4990755;28;20556;-72
2024/01/24 13:32:19;;;;;;;5.33;2.87;;;11.40;94.40;;;;;;4990640;28;20248;-71
2024/01/24 13:34:45;;;;;;;1.47;1.40;;;11.30;94.40;;;;;;4987936;28;20382;-70
2024/01/24 13:37:11;;;;;;;2.13;1.97;;;11.30;94.60;;;;;;4992331;28;20424;-69
2024/01/24 13:39:37;;;;;;;1.67;1.30;;;11.30;94.50;;;;;;4989396;28;20665;-68
2024/01/24 13:42:02;;;;;;;10.70;1.80;;;11.30;94.30;;;;;;4990654;28;20444;-69
2024/01/24 13:44:28;;;;;;;0.90;0.80;;;11.40;94.70;;;;;;4988859;28;20192;-71
2024/01/24 13:46:54;;;;;;;17.77;2.20;;;11.30;94.60;;;;;;4987810;28;20205;-72
2024/01/24 13:49:19;;;;;;;1.00;0.90;;;11.40;94.30;;;;;;4988791;28;20220;-68
2024/01/24 13:51:45;;;;;;;1.13;1.10;;;11.40;94.00;;;;;;4987169;28;20378;-70
2024/01/24 13:54:10;;;;;;;5.70;1.33;;;11.70;93.80;;;;;;4987203;28;20680;-68
2024/01/24 13:56:36;;;;;;;1.00;0.90;;;11.80;92.60;;;;;;4986344;28;20673;-73
2024/01/24 13:59:01;;;;;;;1.43;1.07;;;11.70;92.20;;;;;;4990844;28;20661;-71
2024/01/24 14:01:27;;;;;;;3.03;1.23;;;11.70;92.20;;;;;;5006477;28;20193;-70
2024/01/24 14:03:52;;;;;;;1.03;0.90;;;11.70;92.00;;;;;;4996045;28;20192;-68
2024/01/24 14:06:19;;;;;;;14.63;1.37;;;11.70;91.80;;;;;;5001771;28;20185;-69
2024/01/24 14:08:45;;;;;;;1.40;1.30;;;11.60;91.50;;;;;;5009634;28;20220;-68
2024/01/24 14:11:11;;;;;;;0.70;0.70;;;11.50;91.40;;;;;;5000466;28;20576;-71
2024/01/24 14:13:37;;;;;;;12.70;2.20;;;11.50;91.50;;;;;;4991321;28;20453;-80
2024/01/24 14:16:03;;;;;;;4.03;1.97;;;11.50;91.70;;;;;;4992832;28;20182;-72
2024/01/24 14:18:29;;;;;;;3.53;1.73;;;11.40;91.60;;;;;;4990868;28;20467;-71
2024/01/24 14:20:55;;;;;;;4.97;1.40;;;11.30;92.00;;;;;;4993502;28;20472;-72
2024/01/24 14:23:21;;;;;;;1.57;0.90;;;11.20;92.20;;;;;;4994811;28;20188;-73
2024/01/24 14:25:46;;;;;;;2.20;1.57;;;11.20;92.30;;;;;;4992387;28;20189;-74
2024/01/24 14:28:12;;;;;;;1.00;0.90;;;11.10;92.50;;;;;;4992100;28;20491;-74
2024/01/24 14:30:38;;;;;;;13.30;2.40;;;11.10;92.90;;;;;;4994023;28;20201;-71
2024/01/24 14:33:04;;;;;;;3.50;1.43;;;11.00;93.20;;;;;;4991400;28;20429;-69
2024/01/24 14:35:33;;;;;;;2.27;1.70;;;11.00;93.20;;;;;;4985842;28;20183;-72
2024/01/24 14:37:59;;;;;;;1.00;0.90;;;11.00;93.40;;;;;;4992419;28;20197;-78
2024/01/24 14:40:24;;;;;;;2.20;1.33;;;11.10;93.50;;;;;;4993120;28;20445;-75
2024/01/24 14:42:50;;;;;;;1.37;1.30;;;11.00;94.00;;;;;;4993470;28;20531;-71
2024/01/24 14:45:15;;;;;;;1.53;1.30;;;11.10;94.20;;;;;;4991002;28;20205;-71
2024/01/24 14:47:41;;;;;;;1.17;1.10;;;11.00;94.50;;;;;;4992453;28;20272;-67
2024/01/24 14:50:07;;;;;;;1.57;1.47;;;11.00;94.60;;;;;;4991051;28;20182;-77
2024/01/24 14:52:33;;;;;;;2.50;2.30;;;10.90;94.60;;;;;;4991360;28;20185;-70
2024/01/24 14:55:01;;;;;;;3.47;0.90;;;11.00;94.70;;;;;;4991449;28;20425;-72
2024/01/24 14:57:27;;;;;;;17.63;3.50;;;11.10;93.90;;;;;;4992661;28;20424;-73
2024/01/24 14:59:52;;;;;;;1.00;0.90;;;11.20;93.60;;;;;;4997056;28;20474;-80
2024/01/24 15:02:18;;;;;;;1.77;1.67;;;11.30;93.50;;;;;;5003807;28;20459;-78
2024/01/24 15:04:43;;;;;;;1.30;1.20;;;11.20;93.50;;;;;;5007419;28;20217;-76
2024/01/24 15:07:09;;;;;;;17.77;1.97;;;11.00;94.00;;;;;;5008392;28;20204;-77
2024/01/24 15:09:35;;;;;;;4.87;1.30;;;10.90;94.10;;;;;;4992807;28;20197;-82
2024/01/24 15:12:01;;;;;;;9.03;3.83;;;10.80;94.40;;;;;;4992246;28;20293;-74
2024/01/24 15:14:27;;;;;;;4.13;2.07;;;10.80;94.80;;;;;;5000374;28;20416;-69
2024/01/24 15:16:54;;;;;;;1.00;0.90;;;10.70;94.80;;;;;;4996234;28;20906;-72
2024/01/24 15:19:19;;;;;;;13.03;3.70;;;10.60;94.90;;;;;;5010301;28;20181;-72
2024/01/24 15:21:45;;;;;;;4.70;2.60;;;10.60;95.10;;;;;;4995706;28;20451;-79
2024/01/24 15:24:10;;;;;;;4.93;2.17;;;10.60;95.00;;;;;;5005917;28;20194;-75
2024/01/24 15:26:36;;;;;;;1.73;1.67;;;10.60;95.20;;;;;;5009076;28;20201;-72
2024/01/24 15:29:02;;;;;;;8.83;1.80;;;10.50;95.10;;;;;;5011094;28;20188;-73
2024/01/24 15:31:28;;;;;;;9.67;2.60;;;10.50;95.10;;;;;;4994851;28;20193;-72
2024/01/24 15:33:53;;;;;;;1.27;1.17;;;10.50;95.00;;;;;;5003101;28;20427;-74
2024/01/24 15:36:19;;;;;;;3.53;3.33;;;10.50;95.00;;;;;;5009724;28;20184;-75
2024/01/24 15:38:50;;;;;;;1.00;0.90;;;10.40;95.10;;;;;;5003643;28;20277;-80
2024/01/24 15:41:16;;;;;;;1.70;1.47;;;10.40;95.00;;;;;;5003287;28;20456;-74
2024/01/24 15:43:41;;;;;;;1.30;1.20;;;10.40;95.00;;;;;;5001460;28;20428;-75
2024/01/24 15:46:08;;;;;;;8.80;4.07;;;10.40;95.20;;;;;;4994965;28;20850;-79
2024/01/24 15:48:33;;;;;;;5.90;1.57;;;10.40;95.00;;;;;;4997653;28;20229;-77
2024/01/24 15:50:59;;;;;;;2.90;2.70;;;10.40;95.00;;;;;;4995402;28;20475;-79
2024/01/24 15:53:24;;;;;;;2.00;1.53;;;10.40;95.00;;;;;;5008266;28;20665;-75
2024/01/24 15:55:50;;;;;;;2.83;1.70;;;10.40;94.90;;;;;;4994051;28;20725;-72
2024/01/24 15:58:16;;;;;;;4.20;1.63;;;10.40;95.00;;;;;;5002046;28;20630;-78
2024/01/24 16:00:42;;;;;;;1.90;1.50;;;10.40;94.90;;;;;;5001905;28;20228;-70
2024/01/24 16:03:09;;;;;;;2.17;1.53;;;10.40;94.80;;;;;;5001893;28;20451;-80
2024/01/24 16:05:45;;;;;;;5.20;1.37;;;10.40;95.20;;;;;;4998728;28;20190;-81
2024/01/24 16:08:12;;;;;;;4.67;1.83;;;10.40;95.30;;;;;;4993399;28;20994;-74
2024/01/24 16:10:38;;;;;;;1.10;1.00;;;10.30;95.20;;;;;;5000456;28;20437;-72
2024/01/24 16:13:04;;;;;;;1.00;0.90;;;10.30;95.20;;;;;;5003102;28;20431;-75
2024/01/24 16:15:30;;;;;;;4.93;1.47;;;10.30;95.40;;;;;;4996464;28;20180;-71
2024/01/24 16:17:55;;;;;;;1.00;0.90;;;10.20;95.60;;;;;;4990170;28;20428;-75
2024/01/24 16:20:21;;;;;;;0.97;0.87;;;10.20;95.80;;;;;;4997460;28;20708;-72
2024/01/24 16:22:46;;;;;;;1.73;1.63;;;10.20;96.00;;;;;;5001412;28;20250;-78
2024/01/24 16:25:12;;;;;;;2.33;2.13;;;10.10;96.00;;;;;;4993800;28;20185;-71
2024/01/24 16:27:39;;;;;;;4.50;3.27;;;10.10;96.10;;;;;;4998687;28;20216;-75
2024/01/24 16:30:06;;;;;;;2.07;1.93;;;10.10;96.30;;;;;;5001133;28;20530;-73
2024/01/24 16:32:32;;;;;;;1.47;1.37;;;10.10;96.50;;;;;;5006614;28;20860;-78
2024/01/24 16:34:57;;;;;;;0.90;0.80;;;10.10;96.60;;;;;;5001910;28;20420;-70
2024/01/24 16:37:23;;;;;;;1.53;1.23;;;10.00;96.80;;;;;;5000565;28;21046;-72
2024/01/24 16:39:49;;;;;;;1.20;1.10;;;10.00;96.80;;;;;;5002847;28;20201;-72
2024/01/24 16:42:15;;;;;;;4.67;1.50;;;10.00;97.20;;;;;;4992321;28;20476;-75
2024/01/24 16:44:40;;;;;;;19.93;1.47;;;10.00;97.10;;;;;;5005437;28;20194;-70
2024/01/24 16:47:06;;;;;;;1.00;0.90;;;10.00;97.20;;;;;;5003404;28;20208;-72
2024/01/24 16:49:32;;;;;;;2.80;1.23;;;10.00;97.10;;;;;;4997945;28;20177;-71
2024/01/24 16:51:59;;;;;;;16.53;1.73;;;10.00;97.30;;;;;;4991998;28;20479;-73
2024/01/24 16:54:25;;;;;;;3.80;1.27;;;9.90;97.30;;;;;;4995771;28;20481;-72
2024/01/24 16:56:50;;;;;;;1.33;1.23;;;9.90;97.30;;;;;;4999643;28;21086;-73
2024/01/24 16:59:16;;;;;;;3.60;1.37;;;9.90;97.30;;;;;;4993536;28;20218;-74
2024/01/24 17:01:42;;;;;;;3.90;1.50;;;9.80;97.30;;;;;;4997891;28;20594;-72
2024/01/24 17:04:08;;;;;;;1.20;1.10;;;9.80;97.30;;;;;;5007817;28;20189;-70
2024/01/24 17:06:34;;;;;;;1.00;0.90;;;9.80;97.30;;;;;;4991715;28;20421;-76
2024/01/24 17:08:59;;;;;;;2.17;1.70;;;9.80;97.30;;;;;;5005601;28;20211;-75
2024/01/24 17:11:25;;;;;;;1.67;1.57;;;9.80;97.30;;;;;;4996862;28;20248;-77
2024/01/24 17:13:50;;;;;;;1.20;1.10;;;9.80;97.30;;;;;;5001917;28;20186;-70
2024/01/24 17:16:16;;;;;;;0.90;0.80;;;9.70;97.30;;;;;;4993916;28;20215;-77
2024/01/24 17:21:09;;;;;;;38.77;4.27;;;9.70;97.30;;;;;;5039158;28;20699;-72
2024/01/24 17:23:35;;;;;;;7.20;1.67;;;9.70;97.30;;;;;;5039399;28;20429;-69
2024/01/24 17:26:00;;;;;;;1.47;1.37;;;9.70;97.30;;;;;;5028651;28;20263;-72
2024/01/24 17:28:26;;;;;;;6.00;2.10;;;9.70;97.30;;;;;;5035338;28;20206;-76
2024/01/24 17:30:52;;;;;;;0.80;0.70;;;9.70;97.30;;;;;;5038945;28;20227;-72
2024/01/24 17:33:18;;;;;;;1.73;1.57;;;9.70;97.30;;;;;;5037306;28;20270;-66
2024/01/24 17:35:44;;;;;;;2.30;2.20;;;9.70;97.30;;;;;;5027803;28;20416;-73
2024/01/24 17:38:09;;;;;;;1.87;1.77;;;9.70;97.30;;;;;;5033033;28;20417;-71
2024/01/24 17:40:35;;;;;;;2.13;1.97;;;9.70;97.30;;;;;;5027670;28;20729;-73
2024/01/24 17:43:01;;;;;;;2.30;1.53;;;9.70;97.30;;;;;;5027381;28;20176;-69
2024/01/24 17:45:26;;;;;;;1.37;1.27;;;9.70;97.30;;;;;;5031076;28;20180;-69
2024/01/24 17:47:52;;;;;;;1.00;0.90;;;9.70;97.30;;;;;;5038452;28;20191;-69
2024/01/24 17:50:17;;;;;;;1.00;0.90;;;9.60;97.30;;;;;;5039867;28;20181;-69
2024/01/24 17:52:43;;;;;;;5.27;1.43;;;9.60;97.30;;;;;;5046446;28;20234;-72
2024/01/24 17:55:09;;;;;;;1.73;1.30;;;9.60;97.30;;;;;;5029948;28;20180;-67
2024/01/24 17:57:35;;;;;;;1.20;1.10;;;9.60;97.30;;;;;;5038232;28;20180;-69
2024/01/24 18:00:04;;;;;;;2.13;1.97;;;9.60;97.30;;;;;;5037129;28;20423;-72
2024/01/24 18:02:30;;;;;;;9.77;1.43;;;9.60;97.30;;;;;;5038241;28;20417;-70